Terminal Aerodrome Forecast
Issued by NWS Buffalo, NY

Home | Current Version | Previous Version | Text Only | Print | Product List | Glossary On
Versions: 1 2 3 4 5 6 7 8 9 10 11 12 13 14 15 16 17 18 19 20 21 22 23 24 25 26 27 28 29 30 31 32 33 34
000
FTUS41 KBUF 031720
TAFBUF
TAF
KBUF 031720Z 0318/0418 22006KT P6SM SCT030 BKN200
     FM032000 30006KT P6SM SCT035
     FM032300 36005KT P6SM SCT250
     FM040100 04004KT P6SM SCT250
     FM040400 11004KT 4SM BR SCT060
     FM041200 07010KT P6SM SCT120=

USA.gov is the U.S. government's official web portal to all federal, state and local government web resources and services.